Time;durP1;ratioP1;P1;durP2;ratioP2;P2;SDS_P1;SDS_P2;PMS_P1;PMS_P2;Temp;Humidity;BMP_temperature;BMP_pressure;BME280_temperature;BME280_humidity;BME280_pressure;Samples;Min_cycle;Max_cycle;Signal;HPM_P1;HPM_P2
2024/01/22 00:01:39;;;;;;;5.28;3.80;;;;;;;-9.25;68.11;96419.31;5131272;27;20076;-69
2024/01/22 00:04:04;;;;;;;7.15;4.53;;;;;;;-9.26;68.34;96416.75;5115583;27;20493;-70
2024/01/22 00:06:30;;;;;;;7.25;4.60;;;;;;;-9.30;68.85;96404.94;5115696;27;20035;-69
2024/01/22 00:08:56;;;;;;;7.72;4.63;;;;;;;-9.17;68.93;96437.06;5115491;27;20027;-69
2024/01/22 00:11:21;;;;;;;6.03;4.72;;;;;;;-9.14;69.42;96436.28;5111355;28;20046;-69
2024/01/22 00:13:46;;;;;;;9.57;4.82;;;;;;;-9.16;69.52;96435.41;5111987;28;20528;-70
2024/01/22 00:16:12;;;;;;;7.13;4.90;;;;;;;-9.24;70.57;96410.09;5112063;28;20031;-69
2024/01/22 00:18:38;;;;;;;7.22;4.65;;;;;;;-9.04;70.50;96433.97;5094881;28;20032;-70
2024/01/22 00:21:04;;;;;;;10.80;6.20;;;;;;;-9.17;71.03;96432.03;5111722;27;20051;-70
2024/01/22 00:23:29;;;;;;;10.02;5.43;;;;;;;-9.02;71.21;96432.34;5112931;28;20028;-70
2024/01/22 00:25:55;;;;;;;6.63;4.72;;;;;;;-8.92;71.20;96435.00;5111934;28;20040;-70
2024/01/22 00:28:20;;;;;;;6.97;5.22;;;;;;;-8.94;71.17;96434.13;5096878;27;20027;-70
2024/01/22 00:30:46;;;;;;;8.80;5.85;;;;;;;-8.99;71.79;96436.59;5130944;27;20035;-69
2024/01/22 00:33:11;;;;;;;8.60;5.90;;;;;;;-8.77;70.66;96430.25;5114834;27;20030;-69
2024/01/22 00:35:36;;;;;;;8.07;5.60;;;;;;;-8.65;70.42;96445.59;5115003;27;20386;-70
2024/01/22 00:38:02;;;;;;;8.40;5.60;;;;;;;-8.62;70.79;96433.03;5102831;27;20091;-70
2024/01/22 00:40:27;;;;;;;9.43;6.30;;;;;;;-8.57;71.09;96444.03;5114872;27;20035;-69
2024/01/22 00:42:53;;;;;;;9.55;6.28;;;;;;;-8.69;70.60;96433.75;5114791;27;20427;-70
2024/01/22 00:45:18;;;;;;;9.68;6.75;;;;;;;-8.59;70.84;96450.72;5131854;27;20035;-69
2024/01/22 00:47:43;;;;;;;11.20;5.72;;;;;;;-8.52;70.70;96451.69;5120112;27;20031;-69
2024/01/22 00:50:09;;;;;;;10.70;6.40;;;;;;;-8.51;70.85;96443.31;5112740;28;20031;-70
2024/01/22 00:52:34;;;;;;;14.88;7.30;;;;;;;-8.50;71.21;96439.09;5094332;28;20028;-70
2024/01/22 00:55:00;;;;;;;11.50;7.18;;;;;;;-8.52;70.55;96435.69;5094207;28;20459;-70
2024/01/22 00:57:25;;;;;;;11.77;6.72;;;;;;;-8.65;71.24;96420.38;5128564;27;20031;-70
2024/01/22 00:59:51;;;;;;;14.63;6.85;;;;;;;-8.42;70.99;96425.78;5131587;27;20031;-69
2024/01/22 01:02:16;;;;;;;13.07;8.15;;;;;;;-8.45;70.35;96429.94;5132898;27;20035;-70
2024/01/22 01:04:42;;;;;;;10.57;6.93;;;;;;;-8.43;69.93;96428.31;5112128;27;20055;-69
2024/01/22 01:07:08;;;;;;;14.13;7.93;;;;;;;-8.81;72.17;96424.28;5131818;27;20038;-70
2024/01/22 01:09:33;;;;;;;11.35;6.90;;;;;;;-8.70;72.72;96416.94;5132579;27;20023;-70
2024/01/22 01:11:58;;;;;;;11.98;6.57;;;;;;;-8.85;72.25;96404.09;5131449;27;20035;-69
2024/01/22 01:14:24;;;;;;;11.60;6.18;;;;;;;-8.70;72.30;96408.53;5129664;27;20023;-69
2024/01/22 01:16:50;;;;;;;11.43;6.97;;;;;;;-8.61;72.29;96424.66;5097145;27;20393;-70
2024/01/22 01:19:15;;;;;;;11.77;6.50;;;;;;;-8.67;71.71;96424.53;5132380;27;20511;-70
2024/01/22 01:21:41;;;;;;;9.35;6.45;;;;;;;-9.01;71.42;96401.28;5132480;27;20023;-70
2024/01/22 01:24:07;;;;;;;10.35;6.25;;;;;;;-8.56;68.41;96410.44;5129732;27;20034;-69
2024/01/22 01:26:33;;;;;;;8.45;5.75;;;;;;;-8.59;68.13;96407.03;5113955;27;20035;-70
2024/01/22 01:28:58;;;;;;;10.00;5.75;;;;;;;-8.56;68.49;96423.06;5132331;27;20052;-69
2024/01/22 01:31:28;;;;;;;8.43;5.53;;;;;;;-8.56;68.15;96414.66;5131337;27;20043;-70
2024/01/22 01:33:54;;;;;;;8.13;4.68;;;;;;;-8.60;68.45;96417.94;5129550;27;20027;-70
2024/01/22 01:36:19;;;;;;;9.10;5.32;;;;;;;-8.66;69.51;96406.09;5129643;27;20039;-70
2024/01/22 01:38:44;;;;;;;9.75;5.68;;;;;;;-8.78;70.39;96396.63;5110370;28;20390;-70
2024/01/22 01:41:10;;;;;;;9.32;6.30;;;;;;;-8.63;70.84;96417.91;5112654;27;20035;-70
2024/01/22 01:43:35;;;;;;;10.18;6.50;;;;;;;-8.63;71.21;96395.22;5132025;27;20025;-70
2024/01/22 01:46:01;;;;;;;12.07;7.85;;;;;;;-8.75;71.18;96393.31;5132517;27;20035;-70
2024/01/22 01:48:27;;;;;;;11.00;6.97;;;;;;;-8.42;71.84;96409.84;5113612;27;20038;-70
2024/01/22 01:50:52;;;;;;;10.32;7.10;;;;;;;-8.44;71.52;96403.91;5112710;28;20385;-69
2024/01/22 01:53:17;;;;;;;9.82;6.30;;;;;;;-8.36;71.24;96392.25;5130722;27;20049;-69
2024/01/22 01:55:43;;;;;;;11.55;6.85;;;;;;;-8.19;71.22;96405.97;5113401;27;20023;-69
2024/01/22 01:58:09;;;;;;;10.13;5.90;;;;;;;-8.11;71.24;96398.50;5113504;28;20031;-71
2024/01/22 02:00:34;;;;;;;9.15;6.72;;;;;;;-8.07;71.09;96402.78;5129679;27;20086;-71
2024/01/22 02:02:59;;;;;;;11.73;6.90;;;;;;;-7.99;70.63;96410.47;5113405;28;20505;-69
2024/01/22 02:05:25;;;;;;;11.93;7.15;;;;;;;-8.20;71.84;96406.78;5132081;27;20457;-71
2024/01/22 02:07:50;;;;;;;10.77;7.28;;;;;;;-8.16;71.08;96408.53;5130156;28;20462;-69
2024/01/22 02:10:16;;;;;;;11.88;7.30;;;;;;;-8.14;71.22;96401.81;5130070;28;20567;-69
2024/01/22 02:12:41;;;;;;;14.38;8.27;;;;;;;-8.09;70.94;96399.38;5113330;28;20120;-69
2024/01/22 02:15:07;;;;;;;11.57;7.13;;;;;;;-8.06;70.77;96401.94;5131846;27;20446;-69
2024/01/22 02:17:33;;;;;;;11.82;7.43;;;;;;;-8.07;70.46;96401.94;5109052;28;20027;-69
2024/01/22 02:19:59;;;;;;;9.40;6.68;;;;;;;-8.26;69.79;96351.22;5093064;28;20412;-70
2024/01/22 02:22:24;;;;;;;9.88;6.53;;;;;;;-7.91;68.78;96398.78;5109967;28;20518;-69
2024/01/22 02:24:49;;;;;;;10.48;7.05;;;;;;;-7.95;68.77;96397.91;5092894;28;20478;-71
2024/01/22 02:27:15;;;;;;;12.35;8.13;;;;;;;-8.12;68.73;96386.72;5120107;28;20412;-69
2024/01/22 02:29:41;;;;;;;17.92;8.00;;;;;;;-8.10;69.38;96408.63;5130314;28;20122;-69
2024/01/22 02:32:06;;;;;;;13.02;7.95;;;;;;;-8.29;69.49;96378.06;5131655;27;20051;-70
2024/01/22 02:34:32;;;;;;;13.40;7.25;;;;;;;-8.12;70.25;96400.19;5096097;28;20039;-69
2024/01/22 02:36:57;;;;;;;13.48;7.32;;;;;;;-8.19;70.58;96400.94;5121554;27;20085;-69
2024/01/22 02:39:22;;;;;;;12.32;7.82;;;;;;;-8.28;70.76;96383.13;5110942;28;20072;-69
2024/01/22 02:41:48;;;;;;;10.93;6.80;;;;;;;-8.21;71.03;96389.13;5093101;28;20020;-69
2024/01/22 02:44:13;;;;;;;11.73;6.63;;;;;;;-8.00;69.95;96396.13;5109613;28;20129;-69
2024/01/22 02:46:39;;;;;;;10.35;6.63;;;;;;;-7.93;69.31;96400.47;5130231;28;20630;-69
2024/01/22 02:49:06;;;;;;;12.25;8.02;;;;;;;-8.15;69.43;96390.06;5130117;28;20019;-69
2024/01/22 02:51:32;;;;;;;15.88;8.75;;;;;;;-8.39;70.24;96377.94;5130089;27;20118;-69
2024/01/22 02:53:57;;;;;;;13.30;7.88;;;;;;;-8.61;70.81;96353.22;5094535;28;20117;-69
2024/01/22 02:56:24;;;;;;;13.93;8.05;;;;;;;-8.37;70.76;96393.06;5115074;28;20096;-69
2024/01/22 02:58:49;;;;;;;15.18;8.52;;;;;;;-8.50;70.91;96398.78;5096502;28;20477;-69
2024/01/22 03:01:15;;;;;;;13.70;9.05;;;;;;;-8.77;71.25;96384.91;5113534;28;20024;-69
2024/01/22 03:03:40;;;;;;;12.20;7.45;;;;;;;-8.46;69.77;96396.34;5106091;27;20524;-69
2024/01/22 03:06:06;;;;;;;13.55;7.63;;;;;;;-8.52;68.34;96382.78;5103398;27;20043;-69
2024/01/22 03:08:32;;;;;;;10.95;6.68;;;;;;;-8.90;69.35;96378.81;5116734;27;20031;-69
2024/01/22 03:10:57;;;;;;;11.13;7.07;;;;;;;-8.82;69.14;96391.53;5127926;27;20508;-69
2024/01/22 03:13:23;;;;;;;11.27;6.40;;;;;;;-9.20;69.81;96366.50;5113747;27;20035;-69
2024/01/22 03:15:48;;;;;;;12.05;7.20;;;;;;;-9.09;70.46;96390.22;5133731;27;20035;-69
2024/01/22 03:18:13;;;;;;;12.50;5.93;;;;;;;-9.22;71.19;96389.16;5133656;27;20026;-69
2024/01/22 03:20:39;;;;;;;10.68;6.10;;;;;;;-9.12;70.42;96386.81;5114370;27;20031;-69
2024/01/22 03:23:04;;;;;;;10.95;7.00;;;;;;;-9.24;71.25;96400.00;5109289;28;20024;-69
2024/01/22 03:25:30;;;;;;;10.60;6.60;;;;;;;-9.42;72.46;96374.47;5108269;28;20039;-70
2024/01/22 03:27:55;;;;;;;12.13;7.35;;;;;;;-9.20;72.49;96400.91;5095799;28;20024;-70
2024/01/22 03:30:20;;;;;;;11.55;7.25;;;;;;;-9.15;71.89;96405.22;5113026;27;20046;-69
2024/01/22 03:32:46;;;;;;;11.63;7.72;;;;;;;-9.25;72.63;96408.38;5121393;27;20095;-69
2024/01/22 03:35:11;;;;;;;12.90;7.53;;;;;;;-9.17;73.12;96399.28;5134822;27;20043;-69
2024/01/22 03:37:37;;;;;;;12.43;7.28;;;;;;;-9.01;73.42;96401.28;5115602;27;20023;-69
2024/01/22 03:40:02;;;;;;;14.98;8.30;;;;;;;-8.78;74.01;96408.38;5116161;27;20035;-71
2024/01/22 03:42:28;;;;;;;16.25;8.88;;;;;;;-8.75;74.82;96395.84;5093580;27;20024;-69
2024/01/22 03:44:53;;;;;;;18.25;8.00;;;;;;;-8.58;75.08;96414.63;5095009;28;20028;-69
2024/01/22 03:47:19;;;;;;;16.80;8.85;;;;;;;-8.45;76.16;96409.78;5126874;27;20027;-69
2024/01/22 03:49:44;;;;;;;17.15;10.43;;;;;;;-8.35;76.57;96419.16;5132557;27;20080;-69
2024/01/22 03:52:09;;;;;;;16.75;9.27;;;;;;;-8.44;76.19;96419.03;5117541;27;20409;-69
2024/01/22 03:54:35;;;;;;;19.25;10.35;;;;;;;-8.56;76.52;96415.50;5113278;27;20481;-68
2024/01/22 03:57:06;;;;;;;13.88;8.20;;;;;;;-8.48;76.34;96402.19;5126206;27;20034;-72
2024/01/22 03:59:31;;;;;;;;;;;;;;;-8.53;75.79;96416.38;5131772;27;20484;-67
2024/01/22 04:01:57;;;;;;;16.40;9.23;;;;;;;-8.39;75.03;96410.72;5114795;27;19965;-69
2024/01/22 04:04:22;;;;;;;18.52;11.93;;;;;;;-8.12;73.07;96410.28;5114839;27;20466;-70
2024/01/22 04:06:48;;;;;;;14.27;9.40;;;;;;;-8.43;73.80;96413.19;5133480;27;20027;-68
2024/01/22 04:09:13;;;;;;;9.07;6.15;;;;;;;-8.09;71.39;96420.41;5108383;27;20016;-68
2024/01/22 04:11:38;;;;;;;10.40;6.05;;;;;;;-8.18;71.66;96410.19;5129964;27;20404;-68
2024/01/22 04:14:04;;;;;;;8.60;4.88;;;;;;;-8.33;70.91;96369.59;5128037;27;20027;-68
2024/01/22 04:16:29;;;;;;;7.60;4.25;;;;;;;-8.36;70.23;96387.19;5131989;27;20050;-68
2024/01/22 04:18:55;;;;;;;8.65;4.93;;;;;;;-8.24;69.52;96387.41;5113329;27;20420;-68
2024/01/22 04:21:22;;;;;;;8.05;5.05;;;;;;;-8.20;68.76;96416.03;5131460;27;20039;-68
2024/01/22 04:23:47;;;;;;;7.68;4.35;;;;;;;-8.30;68.33;96422.63;5114163;27;20108;-68
2024/01/22 04:26:12;;;;;;;6.18;3.88;;;;;;;-8.33;68.73;96414.97;5130421;27;20489;-67
2024/01/22 04:28:38;;;;;;;6.70;4.25;;;;;;;-8.40;67.96;96410.72;5131659;27;20030;-68
2024/01/22 04:31:06;;;;;;;6.57;4.55;;;;;;;-8.48;66.96;96424.84;5113154;27;20416;-69
2024/01/22 04:33:32;;;;;;;6.55;3.88;;;;;;;-8.57;66.33;96421.38;5113326;27;20474;-68
2024/01/22 04:35:57;;;;;;;9.75;5.30;;;;;;;-8.81;66.87;96421.78;5129434;27;20053;-69
2024/01/22 04:38:23;;;;;;;7.85;4.22;;;;;;;-8.98;67.25;96422.31;5131166;27;20023;-70
2024/01/22 04:40:48;;;;;;;7.55;4.35;;;;;;;-9.09;67.22;96427.13;5129990;27;20027;-69
2024/01/22 04:43:15;;;;;;;7.05;3.40;;;;;;;-9.26;67.76;96411.72;5131026;27;20501;-70
2024/01/22 04:45:40;;;;;;;6.95;3.90;;;;;;;-9.28;68.55;96413.34;5132519;27;20042;-70
2024/01/22 04:48:06;;;;;;;7.63;4.22;;;;;;;-9.33;68.68;96419.97;5133105;27;20020;-69
2024/01/22 04:50:31;;;;;;;8.35;4.55;;;;;;;-9.53;69.70;96375.09;5133266;27;20035;-69
2024/01/22 04:52:57;;;;;;;11.13;5.15;;;;;;;-9.30;70.09;96409.97;5131801;27;20023;-70
2024/01/22 04:55:22;;;;;;;11.95;6.22;;;;;;;-9.50;71.84;96407.91;5133051;27;20035;-68
2024/01/22 04:57:48;;;;;;;10.80;6.72;;;;;;;-9.11;73.24;96412.03;5097449;27;20023;-69
2024/01/22 05:00:13;;;;;;;12.63;7.28;;;;;;;-9.03;73.32;96414.66;5114815;27;20031;-69
2024/01/22 05:02:40;;;;;;;12.10;6.80;;;;;;;-8.96;75.13;96415.63;5131544;27;20047;-68
2024/01/22 05:05:06;;;;;;;11.93;7.40;;;;;;;-8.98;75.57;96409.72;5130141;27;20051;-69
2024/01/22 05:07:31;;;;;;;15.52;8.40;;;;;;;-8.90;76.04;96424.16;5097453;27;20027;-69
2024/01/22 05:10:00;;;;;;;16.67;8.40;;;;;;;-9.09;77.04;96410.34;5131462;27;20038;-68
2024/01/22 05:12:26;;;;;;;14.90;7.60;;;;;;;-9.08;78.71;96419.63;5114814;27;20026;-69
2024/01/22 05:14:51;;;;;;;15.75;8.52;;;;;;;-9.04;79.07;96423.03;5113643;28;20039;-69
2024/01/22 05:17:17;;;;;;;15.35;9.18;;;;;;;-9.03;79.82;96417.19;5129747;27;20424;-70
2024/01/22 05:19:43;;;;;;;16.77;9.38;;;;;;;-9.19;80.15;96408.50;5131191;27;20055;-69
2024/01/22 05:22:08;;;;;;;20.13;10.07;;;;;;;-9.05;80.17;96412.13;5114301;27;20420;-70
2024/01/22 05:24:34;;;;;;;20.95;9.20;;;;;;;-9.06;79.98;96407.91;5114019;27;20062;-69
2024/01/22 05:26:59;;;;;;;14.45;7.60;;;;;;;-8.99;80.04;96423.97;5131287;27;20023;-69
2024/01/22 05:29:25;;;;;;;18.83;9.57;;;;;;;-8.96;80.63;96434.13;5132232;27;20019;-70
2024/01/22 05:31:50;;;;;;;13.90;8.73;;;;;;;-9.05;80.40;96441.50;5114010;27;20182;-68
2024/01/22 05:34:16;;;;;;;17.27;9.07;;;;;;;-9.15;81.01;96427.88;5130871;27;20019;-69
2024/01/22 05:36:42;;;;;;;19.15;9.10;;;;;;;-9.13;82.34;96422.88;5113959;27;20033;-70
2024/01/22 05:39:08;;;;;;;15.00;7.97;;;;;;;-9.00;81.97;96423.16;5114012;27;20023;-69
2024/01/22 05:41:34;;;;;;;18.55;9.55;;;;;;;-8.89;81.57;96442.63;5114042;27;20144;-69
2024/01/22 05:43:59;;;;;;;18.58;9.98;;;;;;;-9.02;82.22;96423.94;5132074;27;20023;-69
2024/01/22 05:46:24;;;;;;;18.13;9.30;;;;;;;-8.90;81.91;96418.25;5131155;27;20035;-68
2024/01/22 05:48:50;;;;;;;17.38;8.63;;;;;;;-8.83;81.81;96432.66;5130745;27;20472;-70
2024/01/22 05:51:15;;;;;;;17.52;9.88;;;;;;;-8.84;82.05;96436.84;5130999;27;20039;-69
2024/01/22 05:53:41;;;;;;;15.80;8.98;;;;;;;-8.89;82.38;96425.81;5130689;27;20023;-70
2024/01/22 05:56:06;;;;;;;19.15;9.32;;;;;;;-8.74;82.03;96429.47;5130857;27;20035;-68
2024/01/22 05:58:32;;;;;;;15.77;8.38;;;;;;;-8.95;81.72;96385.41;5131800;27;20035;-69
2024/01/22 06:00:57;;;;;;;23.98;11.20;;;;;;;-8.87;81.56;96415.78;5113792;28;20028;-70
2024/01/22 06:03:23;;;;;;;15.55;8.45;;;;;;;-8.71;81.27;96427.84;5130539;27;20511;-67
2024/01/22 06:05:48;;;;;;;20.42;9.52;;;;;;;-8.64;80.77;96429.63;5113567;28;20039;-69
2024/01/22 06:08:13;;;;;;;15.13;8.43;;;;;;;-8.64;80.86;96429.63;5130534;27;20050;-69
2024/01/22 06:10:39;;;;;;;15.50;8.65;;;;;;;-8.70;80.03;96421.97;5132033;27;20027;-70
2024/01/22 06:13:04;;;;;;;14.43;8.63;;;;;;;-8.53;79.32;96439.91;5130538;28;20481;-69
2024/01/22 06:15:30;;;;;;;17.70;9.63;;;;;;;-8.63;78.27;96431.34;5131773;27;20046;-69
2024/01/22 06:17:55;;;;;;;15.73;9.80;;;;;;;-8.53;76.50;96436.53;5131614;27;20027;-70
2024/01/22 06:20:20;;;;;;;13.40;8.50;;;;;;;-8.49;74.31;96418.97;5130520;28;20039;-69
2024/01/22 06:22:46;;;;;;;17.17;9.98;;;;;;;-8.32;73.06;96436.88;5096229;28;20151;-69
2024/01/22 06:25:11;;;;;;;17.85;9.00;;;;;;;-8.32;72.23;96436.88;5131842;27;20481;-68
2024/01/22 06:27:37;;;;;;;16.80;8.68;;;;;;;-8.39;71.61;96443.50;5132707;27;20031;-68
2024/01/22 06:30:03;;;;;;;15.40;8.27;;;;;;;-8.46;72.68;96446.75;5135987;27;20027;-68
2024/01/22 06:32:29;;;;;;;15.73;8.05;;;;;;;-8.40;72.84;96443.47;5134424;27;20049;-68
2024/01/22 06:34:54;;;;;;;13.32;8.10;;;;;;;-8.46;72.39;96443.38;5117280;27;20042;-70
2024/01/22 06:37:22;;;;;;;14.50;7.60;;;;;;;-8.51;72.86;96460.09;5134512;27;20496;-69
2024/01/22 06:39:48;;;;;;;14.50;7.97;;;;;;;-8.69;73.64;96416.13;5134423;27;20031;-69
2024/01/22 06:42:13;;;;;;;16.85;8.70;;;;;;;-8.85;75.22;96459.50;5135658;27;20015;-69
2024/01/22 06:44:38;;;;;;;20.10;11.02;;;;;;;-8.90;76.10;96456.03;5134075;27;20042;-67
2024/01/22 06:47:04;;;;;;;18.60;11.65;;;;;;;-8.74;75.83;96459.72;5135524;27;20023;-68
2024/01/22 06:49:30;;;;;;;19.17;12.02;;;;;;;-8.58;74.88;96452.44;5134189;27;20019;-68
2024/01/22 06:51:55;;;;;;;23.58;13.80;;;;;;;-8.37;74.01;96459.47;5134264;27;20022;-68
2024/01/22 06:54:21;;;;;;;24.67;15.32;;;;;;;-8.39;73.94;96450.22;5133922;27;20030;-70
2024/01/22 06:56:46;;;;;;;16.45;9.85;;;;;;;-8.46;73.26;96411.47;5134148;27;20027;-67
2024/01/22 06:59:12;;;;;;;17.17;11.35;;;;;;;-8.13;73.66;96459.03;5135243;27;20385;-68
2024/01/22 07:01:37;;;;;;;24.67;12.43;;;;;;;-8.04;73.51;96452.44;5133954;27;20031;-68
2024/01/22 07:04:03;;;;;;;23.98;14.50;;;;;;;-8.07;73.21;96452.38;5133925;27;20047;-68
2024/01/22 07:06:29;;;;;;;23.77;13.15;;;;;;;-8.42;74.87;96458.56;5135744;27;20196;-68
2024/01/22 07:08:54;;;;;;;25.52;13.35;;;;;;;-8.45;75.47;96461.03;5116851;27;20476;-68
2024/01/22 07:11:19;;;;;;;22.23;11.65;;;;;;;-8.35;76.20;96467.91;5134067;27;20040;-68
2024/01/22 07:13:45;;;;;;;21.95;11.63;;;;;;;-8.12;75.83;96460.72;5133757;27;20042;-68
2024/01/22 07:16:11;;;;;;;21.98;12.02;;;;;;;-7.76;75.24;96462.09;5133847;27;20046;-68
2024/01/22 07:18:37;;;;;;;29.90;13.85;;;;;;;-7.81;74.53;96420.81;5133673;27;20019;-68
2024/01/22 07:21:02;;;;;;;23.17;10.82;;;;;;;-7.72;74.16;96466.34;5135244;27;20054;-69
2024/01/22 07:23:28;;;;;;;23.98;11.63;;;;;;;-8.17;74.60;96452.22;5133527;27;20094;-68
2024/01/22 07:25:56;;;;;;;22.48;11.25;;;;;;;-8.06;76.93;96467.53;5133715;27;20492;-68
2024/01/22 07:28:21;;;;;;;27.25;13.43;;;;;;;-8.07;76.37;96473.41;5134680;27;20055;-67
2024/01/22 07:30:47;;;;;;;27.48;13.05;;;;;;;-7.90;76.54;96468.63;5133288;27;20420;-67
2024/01/22 07:33:12;;;;;;;24.27;12.25;;;;;;;-7.83;76.51;96467.03;5134616;27;20027;-68
2024/01/22 07:35:38;;;;;;;29.52;17.10;;;;;;;-7.78;76.19;96457.84;5133396;27;20039;-67
2024/01/22 07:38:05;;;;;;;29.48;16.25;;;;;;;-7.90;76.40;96416.47;5132569;27;20023;-67
2024/01/22 07:40:30;;;;;;;31.30;17.42;;;;;;;-7.80;76.88;96455.31;5134587;27;20488;-67
2024/01/22 07:42:56;;;;;;;33.55;18.15;;;;;;;-7.81;77.65;96450.25;5133496;27;20034;-67
2024/01/22 07:45:21;;;;;;;38.08;21.65;;;;;;;-7.51;76.82;96444.78;5129855;27;20036;-68
2024/01/22 07:47:47;;;;;;;37.70;20.33;;;;;;;-7.42;75.80;96445.72;5118973;27;20480;-67
2024/01/22 07:50:14;;;;;;;46.67;20.90;;;;;;;-7.87;76.82;96451.84;5129195;27;20031;-67
2024/01/22 07:52:39;;;;;;;34.53;18.77;;;;;;;-8.11;78.34;96454.00;5113840;27;20027;-67
2024/01/22 07:55:06;;;;;;;38.40;19.27;;;;;;;-8.10;79.00;96455.72;5094857;28;20156;-68
2024/01/22 07:57:31;;;;;;;39.92;18.77;;;;;;;-8.13;79.44;96448.09;5111799;28;20027;-68
2024/01/22 07:59:57;;;;;;;42.20;19.20;;;;;;;-8.16;79.96;96443.84;5112065;28;20047;-67
2024/01/22 08:02:22;;;;;;;34.88;16.80;;;;;;;-8.14;80.53;96448.91;5113465;28;20027;-67
2024/01/22 08:04:48;;;;;;;27.83;13.85;;;;;;;-8.03;80.19;96449.91;5084486;27;20043;-66
2024/01/22 08:07:14;;;;;;;27.25;12.88;;;;;;;-8.13;80.46;96433.81;5108880;27;20123;-70
2024/01/22 08:09:40;;;;;;;26.98;13.85;;;;;;;-8.00;80.73;96444.06;5131330;27;20401;-67
2024/01/22 08:12:06;;;;;;;28.38;14.98;;;;;;;-8.09;80.22;96435.53;5129070;27;20027;-70
2024/01/22 08:14:33;;;;;;;26.80;12.25;;;;;;;-7.84;79.76;96435.06;5137513;27;20023;-69
2024/01/22 08:16:58;;;;;;;24.00;13.02;;;;;;;-7.94;79.71;96424.84;5131499;27;20128;-70
2024/01/22 08:19:24;;;;;;;20.33;10.93;;;;;;;-7.68;79.98;96411.72;5132180;27;20044;-70
2024/01/22 08:21:49;;;;;;;15.43;7.93;;;;;;;-7.42;77.65;96410.38;5115291;27;20080;-67
2024/01/22 08:24:14;;;;;;;18.17;9.45;;;;;;;-7.18;76.44;96395.50;5132173;27;20023;-69
2024/01/22 08:26:40;;;;;;;15.30;8.45;;;;;;;-7.30;76.19;96384.44;5115151;27;20027;-70
2024/01/22 08:29:05;;;;;;;22.90;10.52;;;;;;;-7.29;76.66;96393.69;5132103;27;20454;-67
2024/01/22 08:31:31;;;;;;;26.80;12.00;;;;;;;-7.67;78.16;96391.53;5097800;27;20050;-67
2024/01/22 08:33:56;;;;;;;20.02;9.75;;;;;;;-7.65;78.84;96400.00;5132082;27;20039;-67
2024/01/22 08:36:22;;;;;;;21.33;11.15;;;;;;;-6.95;77.42;96391.53;5132218;27;20035;-68
2024/01/22 08:38:47;;;;;;;18.85;9.93;;;;;;;-7.17;77.51;96385.41;5131890;27;20030;-66
2024/01/22 08:41:13;;;;;;;19.45;10.30;;;;;;;-6.90;76.89;96387.38;5132114;27;20035;-70
2024/01/22 08:43:38;;;;;;;20.80;9.82;;;;;;;-7.22;77.06;96397.13;5114615;27;20416;-69
2024/01/22 08:46:04;;;;;;;21.08;12.65;;;;;;;-7.38;77.56;96396.13;5131762;27;20495;-68
2024/01/22 08:48:30;;;;;;;25.05;12.82;;;;;;;-7.47;78.34;96401.88;5131713;27;20130;-68
2024/01/22 08:50:59;;;;;;;22.98;12.45;;;;;;;-7.53;79.14;96406.03;5123925;27;20027;-69
2024/01/22 08:53:25;;;;;;;32.90;15.65;;;;;;;-7.67;79.75;96424.34;5128631;27;20476;-69
2024/01/22 08:55:50;;;;;;;24.90;12.23;;;;;;;-7.76;79.88;96419.19;5131292;27;20039;-69
2024/01/22 08:58:15;;;;;;;24.52;12.07;;;;;;;-7.78;80.21;96430.94;5112354;27;20504;-71
2024/01/22 09:00:41;;;;;;;20.73;10.52;;;;;;;-7.38;79.72;96420.50;5124462;27;20040;-69
2024/01/22 09:03:07;;;;;;;18.50;9.13;;;;;;;-7.65;80.29;96432.81;5103576;27;20573;-70
2024/01/22 09:05:32;;;;;;;20.05;10.07;;;;;;;-7.61;80.75;96430.31;5130001;27;20160;-70
2024/01/22 09:07:57;;;;;;;22.30;9.40;;;;;;;-7.84;81.42;96425.81;5131470;27;20023;-69
2024/01/22 09:10:23;;;;;;;23.65;10.65;;;;;;;-7.71;81.52;96421.78;5125292;27;20035;-71
2024/01/22 09:12:49;;;;;;;13.88;7.18;;;;;;;-7.74;81.64;96407.44;5101368;27;20023;-70
2024/01/22 09:15:17;;;;;;;17.00;8.32;;;;;;;-7.78;81.66;96422.53;5122360;27;20495;-70
2024/01/22 09:17:43;;;;;;;16.17;8.70;;;;;;;-7.83;81.47;96406.47;5105016;28;20032;-70
2024/01/22 09:20:09;;;;;;;15.55;9.38;;;;;;;-7.70;81.63;96419.28;5118683;27;20042;-70
2024/01/22 09:22:34;;;;;;;21.42;11.60;;;;;;;-7.56;81.11;96413.56;5128024;27;20023;-69
2024/01/22 09:25:00;;;;;;;24.50;13.55;;;;;;;-7.47;81.37;96411.16;5127585;27;20050;-71
2024/01/22 09:27:26;;;;;;;25.50;12.35;;;;;;;-7.23;81.68;96408.91;5117951;27;20455;-69
2024/01/22 09:29:51;;;;;;;27.38;13.00;;;;;;;-7.00;80.65;96395.69;5103886;27;20073;-69
2024/01/22 09:32:18;;;;;;;28.30;13.57;;;;;;;-7.21;80.34;96350.84;5120333;27;20020;-68
2024/01/22 09:34:43;;;;;;;23.92;12.15;;;;;;;-6.80;79.35;96401.81;5114869;27;20508;-69
2024/01/22 09:37:09;;;;;;;26.13;12.80;;;;;;;-6.65;79.00;96393.50;5111360;27;20024;-69
2024/01/22 09:39:35;;;;;;;29.08;16.08;;;;;;;-6.71;77.94;96392.59;5122978;27;20035;-68
2024/01/22 09:42:00;;;;;;;28.60;13.98;;;;;;;-6.86;77.50;96386.56;5099384;28;20035;-68
2024/01/22 09:44:26;;;;;;;28.08;15.07;;;;;;;-6.28;77.25;96400.56;5101032;28;20020;-70
2024/01/22 09:46:52;;;;;;;34.22;17.30;;;;;;;-6.42;76.17;96390.34;5087203;27;20440;-69
2024/01/22 09:49:17;;;;;;;31.80;16.65;;;;;;;-6.40;76.23;96392.03;5112484;27;20020;-69
2024/01/22 09:51:44;;;;;;;29.13;15.30;;;;;;;-6.30;76.20;96382.84;5127138;27;20023;-71
2024/01/22 09:54:11;;;;;;;34.90;20.35;;;;;;;-6.23;75.65;96393.88;5110617;27;20058;-70
2024/01/22 09:56:36;;;;;;;33.00;16.30;;;;;;;-6.27;75.48;96392.13;5123427;27;20107;-69
2024/01/22 09:59:07;;;;;;;35.50;18.65;;;;;;;-6.23;75.72;96396.41;5104614;28;20031;-70
2024/01/22 10:01:33;;;;;;;33.47;18.43;;;;;;;-6.34;76.42;96402.22;5127486;27;20035;-70
2024/01/22 10:03:58;;;;;;;30.02;16.77;;;;;;;-6.32;76.70;96385.38;5131729;27;20813;-70
2024/01/22 10:06:24;;;;;;;33.20;18.92;;;;;;;-6.34;76.91;96378.59;5116382;27;20040;-69
2024/01/22 10:08:57;;;;;;;32.60;15.45;;;;;;;-6.48;76.83;96383.53;5104522;28;20035;-70
2024/01/22 10:11:23;;;;;;;34.90;16.95;;;;;;;-6.56;77.11;96350.59;5111054;28;20401;-68
2024/01/22 10:13:52;;;;;;;30.83;15.77;;;;;;;-6.37;76.79;96361.72;5129128;27;20938;-67
2024/01/22 10:16:17;;;;;;;29.75;16.17;;;;;;;-5.79;75.93;96366.28;5129192;27;20041;-69
2024/01/22 10:19:06;;;;;;;29.30;15.43;;;;;;;-5.52;74.28;96357.94;5125214;28;20023;-69
2024/01/22 10:21:32;;;;;;;29.92;17.38;;;;;;;-5.77;74.93;96366.28;5108136;28;20088;-69
2024/01/22 10:23:59;;;;;;;28.65;16.02;;;;;;;-5.85;75.66;96358.63;5091621;28;20035;-69
2024/01/22 10:26:24;;;;;;;33.75;16.48;;;;;;;-5.97;75.50;96356.91;5109724;28;20035;-69
2024/01/22 10:28:51;;;;;;;32.25;17.67;;;;;;;-5.70;75.09;96357.88;5108554;28;20023;-69
2024/01/22 10:31:16;;;;;;;32.00;16.10;;;;;;;-5.71;75.06;96356.16;5110829;28;20028;-69
2024/01/22 10:33:42;;;;;;;33.40;16.17;;;;;;;-5.39;74.21;96338.59;5109700;28;20110;-69
2024/01/22 10:36:17;;;;;;;31.92;16.35;;;;;;;-5.67;75.04;96345.22;5121014;28;20036;-70
2024/01/22 10:38:44;;;;;;;30.88;15.35;;;;;;;-5.62;74.57;96346.09;5109701;28;20098;-70
2024/01/22 10:41:19;;;;;;;29.15;15.82;;;;;;;-5.61;74.86;96343.56;5097995;28;20087;-68
2024/01/22 10:43:45;;;;;;;28.52;14.88;;;;;;;-5.55;74.20;96297.16;5103460;28;20035;-70
2024/01/22 10:46:11;;;;;;;30.38;15.52;;;;;;;-5.33;74.17;96330.16;5119598;28;20219;-70
2024/01/22 10:48:36;;;;;;;33.65;17.75;;;;;;;-5.34;74.27;96338.63;5095184;28;20068;-69
2024/01/22 10:51:02;;;;;;;34.17;19.02;;;;;;;-5.26;73.74;96315.00;5109771;28;20405;-69
2024/01/22 10:53:28;;;;;;;32.33;17.52;;;;;;;-5.42;74.71;96309.03;5092589;28;20412;-69
2024/01/22 10:56:00;;;;;;;27.20;15.45;;;;;;;-4.94;73.56;96322.63;5092534;28;20036;-69
2024/01/22 10:58:30;;;;;;;33.53;17.65;;;;;;;-5.12;74.11;96315.03;5103038;28;20038;-68
2024/01/22 11:01:09;;;;;;;36.05;18.30;;;;;;;-5.19;74.39;96318.38;5124595;28;20031;-68
2024/01/22 11:03:35;;;;;;;34.70;18.00;;;;;;;-5.06;73.45;96296.44;5112816;28;20097;-70
2024/01/22 11:06:00;;;;;;;41.95;21.52;;;;;;;-5.17;74.02;96306.56;5100476;28;20035;-69
2024/01/22 11:08:27;;;;;;;39.05;20.23;;;;;;;-5.08;74.33;96308.25;5081450;28;20035;-69
2024/01/22 11:10:52;;;;;;;37.17;18.15;;;;;;;-5.14;74.49;96308.25;5110062;28;20172;-68
2024/01/22 11:13:17;;;;;;;44.60;20.40;;;;;;;-5.21;74.13;96300.66;5112937;27;20026;-69
2024/01/22 11:15:43;;;;;;;35.72;18.92;;;;;;;-5.32;74.24;96302.31;5116562;27;20035;-69
2024/01/22 11:18:10;;;;;;;32.70;17.00;;;;;;;-5.36;75.03;96304.81;5133588;27;20476;-69